Polarstern — DBLK — position and weather

sailwx.info

Track history (hours):
 
Tides and Currents Weather Stations Pressure Air Temp Water Temp Dewpoint Dewpoint Depression Visibility Wind Speed Wind Dir Waves Ship Positions

Oceanographic research ship Polarstern (Germany)

Detailed information on ship capabilities available from University of Delaware's Ocean Information Center and ARCUS's ALIAS (Arctic Logistics Information and Support) project.

Last reported at 2017-Aug-18 17:00 UTC. Time now 2017-Aug-18 18:20 UTC.
Position N 71°12' E 020°36'.

Length 117.9 m; beam 25 m; draft 10.7 m.

MMSI: 211202460.

Wind from 060 at 25 knots

Barometer 1011.3 mb
Air temperature 9.2 ° C
Dewpoint 7.9 ° C
Water temperature 10.2 ° C

Date/timePositionNaut miles runAvg speedWind from/ knotsBaromVisibWave heightAir tempDewpointWater temp
2017-Aug-18 17:00N 71°12' E 020°36'6 6.3 060 / 251011.3 9.2 7.910.2
2017-Aug-18 16:00N 71°18' E 020°30'6 6.3 060 / 231012.0 9.0 7.610.2
2017-Aug-18 15:00N 71°24' E 020°24'6 6.3 060 / 231012.710.8 9.0 7.210.2
2017-Aug-18 14:00N 71°30' E 020°18'6 6.3 070 / 211013.4 8.5 6.610.3
2017-Aug-18 13:00N 71°36' E 020°12'1212.1 080 / 211014.1 8.2 4.810.1
2017-Aug-18 12:00N 71°48' E 020°06'6 6.3 070 / 211014.510.8 7.9 4.7 9.9
2017-Aug-18 11:00N 71°54' E 020°00'7 7.1 070 / 191015.2 7.6 3.910.0
2017-Aug-18 10:00N 72°00' E 019°48'6 6.3 070 / 161016.0 7.4 3.3 9.7
2017-Aug-18 09:00N 72°06' E 019°42'6 6.3 060 / 161016.510.8 7.1 3.3 9.7
2017-Aug-18 08:00N 72°12' E 019°36'1212.1 060 / 161017.0 6.5 1.9 9.6
2017-Aug-18 07:00N 72°24' E 019°30'7 7.0 060 / 141017.5 6.5 1.9 9.7
2017-Aug-18 06:00N 72°30' E 019°18'6 6.3 050 / 121017.410.8 6.3 1.6 9.8
2017-Aug-18 05:00N 72°36' E 019°12'6 6.3 040 / 121017.8 6.1 1.3 9.5
2017-Aug-18 04:00N 72°42' E 019°06'1312.5 040 / 101017.9 5.8 0.7 9.5
2017-Aug-18 03:00N 72°54' E 018°54'6 6.3 030 / 81018.3 5.9 0.9 9.1
2017-Aug-18 02:00N 73°00' E 018°48'1212.5 020 / 101018.4 5.9 1.0 9.0
2017-Aug-18 01:00N 73°12' E 018°36'6 6.2 020 / 101018.2 5.7 0.3 9.1
2017-Aug-18 00:00N 73°18' E 018°30'7 6.9 010 / 101018.2 5.9 1.1 9.2
2017-Aug-17 23:00N 73°24' E 018°18'1212.1 360 / 121017.8 6.2 1.6 9.1
2017-Aug-17 22:00N 73°36' E 018°12'7 6.9 360 / 141017.5 5.6 1.4 8.6
2017-Aug-17 21:00N 73°42' E 018°00'1212.5 360 / 141017.4 5.5 0.5 7.5
2017-Aug-17 20:00N 73°54' E 017°48'6 6.2 360 / 121017.1 5.2 0.5 6.7
2017-Aug-17 19:00N 74°00' E 017°42'7 6.8 360 / 121016.7 5.3 1.7 6.2
2017-Aug-17 18:00N 74°06' E 017°30'1212.4 360 / 161016.210.8 5.2 0.8 7.0
2017-Aug-17 17:00N 74°18' E 017°18'7 6.8 350 / 161015.8 5.1 0.7 5.7
2017-Aug-17 16:00N 74°24' E 017°06'1212.4 350 / 161015.7 5.2 1.1 6.0
2017-Aug-17 15:00N 74°36' E 016°54'1212.4 350 / 171015.210.8 5.1 0.1 6.3
2017-Aug-17 14:00N 74°48' E 016°42'8 7.6 350 / 171014.9 5.1 0.6 8.4
2017-Aug-17 13:00N 74°54' E 016°24'1212.4 360 / 211014.5 4.7 0.2 7.9
2017-Aug-17 12:00N 75°06' E 016°12'1312.9 360 / 211014.310.8 4.6-0.7 7.5
2017-Aug-17 11:00N 75°18' E 015°54'1212.4 350 / 191014.0 4.4-1.0 7.6
2017-Aug-17 10:00N 75°30' E 015°42'7 6.7 350 / 171013.9 4.5-1.6 7.8
2017-Aug-17 09:00N 75°36' E 015°30'1312.8 350 / 191013.510.8 4.7-1.0 7.7
2017-Aug-17 08:00N 75°48' E 015°12'1212.4 350 / 211013.2 3.7-1.4 7.6
2017-Aug-17 07:00N 76°00' E 015°00'1312.8 350 / 191012.9 3.9-1.1 7.7
2017-Aug-17 06:00N 76°12' E 014°42'7 7.4 350 / 191012.827.0 3.6-1.6 7.5
2017-Aug-17 05:00N 76°18' E 014°24'1212.3 330 / 191013.0 4.3-1.3 8.1
2017-Aug-17 04:00N 76°30' E 014°12'1312.7 330 / 161012.7 3.5-1.2 8.1
2017-Aug-17 03:00N 76°42' E 013°54'7 6.6 340 / 211012.7 3.3-0.3 6.2
2017-Aug-17 02:00N 76°48' E 013°42'1312.7 340 / 191012.2 3.3-0.8 5.1
2017-Aug-17 01:00N 77°00' E 013°24'1312.7 330 / 191012.2 3.1-0.0 7.9
2017-Aug-17 00:00N 77°12' E 013°06'1212.3 330 / 191011.8 3.1-1.1 7.5
2017-Aug-16 23:00N 77°24' E 012°54'7 6.5 330 / 191011.6 3.1-1.4 7.8
2017-Aug-16 22:00N 77°30' E 012°42'1212.3 330 / 191010.9 2.7-1.5 6.0
2017-Aug-16 21:00N 77°42' E 012°30'1212.3 330 / 191010.2 1.7-0.9 6.0
2017-Aug-16 20:00N 77°54' E 012°18'9 8.7 320 / 231009.3 1.3 0.5 7.0
2017-Aug-16 19:00N 78°00' E 012°48'9 8.6 320 / 231007.6 2.8-1.2 7.0
2017-Aug-16 18:00N 78°06' E 013°18'1211.5 320 / 231006.710.8 3.1-1.6 7.0
2017-Aug-16 17:00N 78°12' E 014°06'10 9.8 310 / 161005.2 3.5-1.7 7.0
2017-Aug-16 16:00N 78°12' E 014°54'1010.4 270 / 211003.3 3.9-2.0 7.0
2017-Aug-16 15:00N 78°18' E 015°36'6 6.0 250 / 191002.310.8 4.8 0.6 7.0
2017-Aug-16 14:00N 78°12' E 015°36'0 0.0 250 / 211001.0 4.5 0.9 7.0
2017-Aug-16 13:00N 78°12' E 015°36'0 0.0 250 / 251000.1 4.3 0.7 7.0
2017-Aug-16 12:00N 78°12' E 015°36'0 0.0 250 / 25999.0 4.4 1.1 7.0
2017-Aug-16 11:00N 78°12' E 015°36'0 0.0 250 / 23998.1 4.9 2.5 7.0
2017-Aug-16 10:00N 78°12' E 015°36'0 0.0 240 / 27997.1 5.2 2.2 7.0
2017-Aug-16 09:00N 78°12' E 015°36'6 6.0 250 / 21996.2 6.1 3.0 7.0
2017-Aug-16 08:00N 78°18' E 015°36'1 1.2 220 / 17995.6 7.2 1.7 7.0
2017-Aug-16 07:00N 78°18' E 015°30'1 1.2 200 / 10995.1 7.2 1.8 7.0
2017-Aug-16 06:00N 78°18' E 015°24'6 6.1 190 / 14994.7 5.4 6.9 1.9 7.0
2017-Aug-16 05:00N 78°18' E 014°54'2 2.4 230 / 19994.7 6.1 2.8 7.0
2017-Aug-16 04:00N 78°18' E 014°42'0 0.0 240 / 17994.6 5.6 3.9 7.0
2017-Aug-16 03:00N 78°18' E 014°42'0 0.0 180 / 4995.0 5.3 4.9 7.0
2017-Aug-16 02:00N 78°18' E 014°42'0 0.0 020 / 4995.1 5.1 4.6 7.0
2017-Aug-16 01:00N 78°18' E 014°42'0 0.0 360 / 4995.2 4.7 3.9 7.0
2017-Aug-16 00:00N 78°18' E 014°42'0 0.0 350 / 2995.4 4.9 3.5 7.0
2017-Aug-15 23:00N 78°18' E 014°42'0 0.0 020 / 6995.7 5.6 2.7 7.0
2017-Aug-15 22:00N 78°18' E 014°42'0 0.0 340 / 4995.9 5.3 2.6 7.0
2017-Aug-15 21:00N 78°18' E 014°42'1 1.2 270 / 4996.0 5.6 2.0 7.0
2017-Aug-15 20:00N 78°18' E 014°36'0 0.0 230 / 6996.2 5.4 1.9 7.0
2017-Aug-15 19:00N 78°18' E 014°36'1616.3 230 / 10996.5 5.0 1.9 7.0
2017-Aug-15 18:00N 78°06' E 013°42'1413.6 180 / 14996.610.8 4.7 1.6 7.0
2017-Aug-15 17:00N 78°06' E 012°36'1514.8 160 / 12996.5 4.6 1.3 7.0
2017-Aug-15 16:00N 78°12' E 011°30'1312.5 160 / 12996.2 4.5 1.6 7.0
2017-Aug-15 15:00N 78°18' E 010°36'1515.4 150 / 12996.010.8 4.1 2.4 7.0
2017-Aug-15 14:00N 78°30' E 009°48'1111.3 140 / 12996.2 3.6 2.2 7.2
2017-Aug-15 13:00N 78°36' E 009°00'1616.0 130 / 12996.0 3.2 1.8 7.6
2017-Aug-15 12:00N 78°48' E 008°06'1515.1 130 / 8996.110.8 2.8 1.2 8.1
2017-Aug-15 11:00N 79°00' E 007°18'3 3.4 130 / 6996.5 2.3 0.7 7.9
2017-Aug-15 10:00N 79°00' E 007°00'0 0.0 170 / 4996.3 2.0 1.2 7.7
2017-Aug-15 09:00N 79°00' E 007°00'7 6.9 140 / 4996.0 5.4 1.3 0.6 7.9
2017-Aug-15 08:00N 79°00' E 007°36'1010.3 260 / 4995.9 1.3-0.0 8.2
2017-Aug-15 07:00N 79°00' E 008°30'1010.3 310 / 4995.7 1.3 0.7 7.9
2017-Aug-15 06:00N 79°00' E 009°24'1010.3 330 / 6995.7 5.4 1.1 0.5 6.9
2017-Aug-15 05:00N 79°00' E 010°18'6 5.7 320 / 10995.6 1.0 0.4 7.3
2017-Aug-15 04:00N 79°00' E 010°48'3 3.4 320 / 12995.3 1.1 1.1 7.3
2017-Aug-15 03:00N 79°00' E 011°06'0 0.0 320 / 14995.0 2.1 1.8 7.2
2017-Aug-15 02:00N 79°00' E 011°06'0 0.0 330 / 16995.1 3.0 1.9 7.2
2017-Aug-15 01:00N 79°00' E 011°06'0 0.0 330 / 16995.0 3.1 2.2 7.2
2017-Aug-15 00:00N 79°00' E 011°06'0 0.0 330 / 17995.0 3.2 2.8 7.2
2017-Aug-14 23:00N 79°00' E 011°06'6 5.7 320 / 14994.9 3.7 2.7 7.3
2017-Aug-14 22:00N 79°00' E 010°36'7 6.9 330 / 14995.0 3.0 2.2 7.3
2017-Aug-14 21:00N 79°00' E 010°00'6 5.7 340 / 16995.3 2.2 1.6 6.9
2017-Aug-14 20:00N 79°00' E 009°30'0 0.0 350 / 17995.1 2.4 1.6 7.0
2017-Aug-14 19:00N 79°00' E 009°30'0 0.0 330 / 17995.4 2.2 1.3 6.7
2017-Aug-14 18:00N 79°00' E 009°30'0 0.0 330 / 16995.1 5.4 2.0 1.4 6.3
2017-Aug-14 17:00N 79°00' E 009°30'3 3.4 330 / 14995.3 1.7 1.4 6.6
2017-Aug-14 16:00N 79°00' E 009°12'7 6.9 340 / 12995.6 2.0 1.8 7.2
2017-Aug-14 15:00N 79°00' E 008°36'8 8.0 340 / 14995.8 5.4 1.9 1.9 8.4
2017-Aug-14 14:00N 79°00' E 007°54'8 8.0 330 / 16996.3 1.2 0.8 8.5
2017-Aug-14 13:00N 79°00' E 007°12'8 8.0 330 / 17996.6 0.6 0.4 8.2
2017-Aug-14 12:00N 79°00' E 006°30'1 1.1 330 / 16996.9 1.1 -0.0-0.1 8.0
2017-Aug-14 11:00N 79°00' E 006°24'0 0.0 330 / 12996.8 0.2 0.2 7.7
2017-Aug-14 10:00N 79°00' E 006°24'8 8.0 340 / 12997.4 0.5 0.5 8.0
2017-Aug-14 09:00N 79°00' E 007°06'9 9.2 330 / 14997.2 5.4 0.8 0.1 8.2
2017-Aug-14 08:00N 79°00' E 007°54'3 3.4 330 / 14996.8 2.7 1.9 8.5
2017-Aug-14 07:00N 79°00' E 008°12'2 2.3 350 / 10996.7 4.1 3.3 8.6
2017-Aug-14 06:00N 79°00' E 008°24'0 0.0 340 / 12996.9 5.4 3.9 3.5 8.6
2017-Aug-14 05:00N 79°00' E 008°24'0 0.0 350 / 10997.0 4.9 4.4 8.6
2017-Aug-14 04:00N 79°00' E 008°24'0 0.0 360 / 10997.2 5.9 4.6 8.1
2017-Aug-14 03:00N 79°00' E 008°24'0 0.0 350 / 8997.5 5.8 4.7 8.2
2017-Aug-14 02:00N 79°00' E 008°24'0 0.0 360 / 8997.6 6.1 3.9 8.3
2017-Aug-14 01:00N 79°00' E 008°24'0 0.0 010 / 8997.8 5.9 4.6 8.2
2017-Aug-14 00:00N 79°00' E 008°24'6 5.7 360 / 8998.1 6.1 4.9 8.1
2017-Aug-13 23:00N 79°00' E 007°54'7 6.9 010 / 6998.6 6.4 4.5 8.2
2017-Aug-13 22:00N 79°00' E 007°18'3 3.4 010 / 6998.7 6.7 4.5 7.9
2017-Aug-13 21:00N 79°00' E 007°00'0 0.0 010 / 6998.7 6.6 4.4 7.7
2017-Aug-13 20:00N 79°00' E 007°00'0 0.0 360 / 6998.7 6.4 5.2 7.8
2017-Aug-13 19:00N 79°00' E 007°00'0 0.0 350 / 6998.9 6.1 5.3 7.8
2017-Aug-13 18:00N 79°00' E 007°00'0 0.0 350 / 8998.910.8 6.6 3.9 8.1
2017-Aug-13 17:00N 79°00' E 007°00'0 0.0 340 / 8999.1 6.5 5.1 8.0
2017-Aug-13 16:00N 79°00' E 007°00'0 0.0 340 / 8999.0 6.5 4.5 7.9
2017-Aug-13 15:00N 79°00' E 007°00'0 0.0 350 / 8999.2 5.4 6.3 4.4 7.9
2017-Aug-13 14:00N 79°00' E 007°00'0 0.0 340 / 8999.5 6.2 4.4 7.8
2017-Aug-13 13:00N 79°00' E 007°00'0 0.0 330 / 8999.4 6.1 4.8 7.8
2017-Aug-13 12:00N 79°00' E 007°00'0 0.0 320 / 8999.827.0 6.4 5.2 7.9
2017-Aug-13 11:00N 79°00' E 007°00'1 1.1 330 / 6999.8 7.0 4.8 7.5
2017-Aug-13 10:00N 79°00' E 006°54'1 1.1 050 / 21000.0 7.6 5.1 7.5
2017-Aug-13 09:00N 79°00' E 007°00'1 1.1 340 / 6999.8 5.4 7.1 4.7 8.0
2017-Aug-13 08:00N 79°00' E 006°54'8 8.3 040 / 41000.0 7.1 5.1 7.8
2017-Aug-13 07:00N 79°06' E 006°24'3 3.4 010 / 121000.2 4.8 4.1 7.4
2017-Aug-13 06:00N 79°06' E 006°06'1 1.1 020 / 121000.4 5.4 3.2 2.8 6.7
2017-Aug-13 05:00N 79°06' E 006°12'0 0.0 030 / 161000.5 3.2 2.8 6.7
2017-Aug-13 04:00N 79°06' E 006°12'1 1.1 030 / 141000.5 3.1 3.0 6.6
2017-Aug-13 03:00N 79°06' E 006°18'0 0.0 030 / 141000.7 3.1 2.6 6.7
2017-Aug-13 02:00N 79°06' E 006°18'6 6.1 020 / 141001.1 2.8 2.8 6.7
2017-Aug-13 01:00N 79°12' E 006°12'6 6.1 020 / 161001.2 2.0 2.0 6.3
2017-Aug-13 00:00N 79°06' E 006°06'0 0.0 030 / 141001.8 2.4 2.4 7.1
2017-Aug-12 23:00N 79°06' E 006°06'6 6.0 030 / 141002.3 2.1 2.1 6.6
2017-Aug-12 22:00N 79°12' E 006°06'6 6.0 020 / 161002.4 2.1 2.1 6.4
2017-Aug-12 21:00N 79°06' E 006°06'6 6.0 020 / 161002.8 1.8 1.8 7.1
2017-Aug-12 20:00N 79°12' E 006°06'0 0.0 020 / 161003.1 1.6 1.6 6.7
2017-Aug-12 19:00N 79°12' E 006°06'0 0.0 020 / 171003.2 1.2 1.2 7.2
2017-Aug-12 18:00N 79°12' E 006°06'6 6.0 010 / 191003.4 0.1 1.0 1.0 7.2
2017-Aug-12 17:00N 79°06' E 006°06'0 0.0 010 / 191003.8 0.7 0.5 7.4
2017-Aug-12 16:00N 79°06' E 006°06'0 0.0 010 / 171004.1 0.7 0.7 5.8
2017-Aug-12 15:00N 79°06' E 006°06'0 0.0 010 / 161004.7 0.1 0.3 0.3 5.7
2017-Aug-12 14:00N 79°06' E 006°06'0 0.0 010 / 161005.1 0.5 0.5 5.6
2017-Aug-12 13:00N 79°06' E 006°06'0 0.0 010 / 141005.5 -0.0-0.0 5.5
2017-Aug-12 12:00N 79°06' E 006°06'0 0.0 010 / 141006.0 0.3 -0.0-0.0 5.5
2017-Aug-12 11:00N 79°06' E 006°06'7 6.8 010 / 141006.2 -0.1-0.1 5.3
2017-Aug-12 10:00N 79°06' E 005°30'7 6.8 010 / 161006.4 -0.8-0.8 1.8
2017-Aug-12 09:00N 79°06' E 004°54'0 0.0 020 / 161006.8 0.1 -0.7-0.7 1.8
2017-Aug-12 08:00N 79°06' E 004°54'0 0.0 030 / 171007.0 -0.5-0.6 2.7
2017-Aug-12 07:00N 79°06' E 004°54'0 0.0 020 / 171007.3 -0.3-0.3 2.6
2017-Aug-12 06:00N 79°06' E 004°54'0 0.0 030 / 171007.3 0.5 -0.3-0.3 2.4
2017-Aug-12 05:00N 79°06' E 004°54'0 0.0 020 / 191007.6 -0.1-0.3 2.5
2017-Aug-12 04:00N 79°06' E 004°54'0 0.0 020 / 171008.0 -0.2-0.2 2.2
2017-Aug-12 03:00N 79°06' E 004°54'0 0.0 020 / 171008.3 0.2 0.1 3.0
2017-Aug-12 02:00N 79°06' E 004°54'0 0.0 030 / 171008.7 0.3 0.1 2.2
2017-Aug-12 01:00N 79°06' E 004°54'0 0.0 030 / 171009.1 0.4 0.4 2.1
2017-Aug-11 22:00N 79°06' E 004°54'0 0.0 030 / 161010.6 1.4 1.0 1.8
2017-Aug-11 21:00N 79°06' E 004°54'3 3.4 030 / 171010.5 1.5 1.1 1.6
2017-Aug-11 20:00N 79°06' E 004°36'0 0.0 030 / 171010.8 1.4 0.9 0.8
2017-Aug-11 19:00N 79°06' E 004°36'7 6.8 030 / 161011.0 1.5 0.9 1.1
2017-Aug-11 18:00N 79°06' E 004°00'8 7.5 040 / 161011.1 1.1 1.1 1.0 1.6
2017-Aug-11 17:00N 79°00' E 003°36'6 3.1 020 / 101011.6 0.3 0.3 6.6
2017-Aug-11 15:00N 79°06' E 003°42'9 9.1 040 / 141012.2 5.4 1.1 0.4 4.2
2017-Aug-11 14:00N 79°00' E 004°18'2 2.3 040 / 141012.2 1.2 0.4 1.2
2017-Aug-11 13:00N 79°00' E 004°30'1 1.1 020 / 141012.6 1.2 0.6 1.3
2017-Aug-11 12:00N 79°00' E 004°24'0 0.0 040 / 121013.0 5.4 1.2 0.6 5.6
2017-Aug-11 11:00N 79°00' E 004°24'0 0.0 050 / 141013.3 1.3 0.6 5.5
2017-Aug-11 10:00N 79°00' E 004°24'0 0.0 040 / 121013.2 1.1 0.3 5.5
2017-Aug-11 09:00N 79°00' E 004°24'1 1.1 050 / 121013.4 5.4 0.9 0.4 6.7
2017-Aug-11 08:00N 79°00' E 004°18'0 0.0 020 / 121013.3 1.1 0.1 6.8
2017-Aug-11 07:00N 79°00' E 004°18'0 0.0 020 / 121013.3 1.2-0.0 6.0
2017-Aug-11 06:00N 79°00' E 004°18'0 0.0 030 / 101013.6 5.4 1.3 0.3 6.8
2017-Aug-11 05:00N 79°00' E 004°18'0 0.0 050 / 101013.8 1.5-0.3 6.9
2017-Aug-11 04:00N 79°00' E 004°18'6 6.4 030 / 101014.2 1.4-0.1 5.5
2017-Aug-11 03:00N 79°06' E 004°30'1 1.1 050 / 101014.6 1.2 0.1 1.4
2017-Aug-11 02:00N 79°06' E 004°36'0 0.0 060 / 81014.9 1.7-0.1 2.0
2017-Aug-11 01:00N 79°06' E 004°36'0 0.0 090 / 61015.1 2.9 0.5 2.0
2017-Aug-11 00:00N 79°06' E 004°36'6 6.0 070 / 101015.4 2.1-0.0 1.6
2017-Aug-10 23:00N 79°12' E 004°36'6 6.0 090 / 81015.6 1.7 0.2 0.5
2017-Aug-10 22:00N 79°18' E 004°36'2 2.2 120 / 81015.9 1.6-0.0 3.2
2017-Aug-10 21:00N 79°18' E 004°48'1212.2 100 / 101016.0 0.9 0.1 1.6
2017-Aug-10 20:00N 79°30' E 005°00'6 6.4 130 / 81016.1 1.0 0.3 0.6
2017-Aug-10 19:00N 79°36' E 005°12'0 0.0 140 / 81016.2 0.4-0.0 0.1
2017-Aug-10 18:00N 79°36' E 005°12'0 0.0 130 / 61016.3 5.4 0.6-0.4 0.7
2017-Aug-10 17:00N 79°36' E 005°12'0 0.0 130 / 61016.4 1.1 0.3 1.6
2017-Aug-10 16:00N 79°36' E 005°12'0 0.0 150 / 81016.6 0.9-0.3 0.9
2017-Aug-10 15:00N 79°36' E 005°12'1 1.1 140 / 81016.6 5.4 0.7 0.3 1.1
2017-Aug-10 14:00N 79°36' E 005°18'1 1.1 140 / 61016.6 -0.0-0.0 0.4
2017-Aug-10 13:00N 79°36' E 005°12'0 0.0 160 / 81016.7 -0.0-0.1-0.0
2017-Aug-10 12:00N 79°36' E 005°12'0 0.0 180 / 61017.1 0.1 -0.0-0.1 0.4
2017-Aug-10 11:00N 79°36' E 005°12'0 0.0 190 / 61016.9 -0.3-0.3-0.2
2017-Aug-10 10:00N 79°36' E 005°12'1 1.1 190 / 61017.2 -0.5-0.5-0.2
2017-Aug-10 09:00N 79°36' E 005°06'1 1.1 180 / 61017.0 0.1 -0.2-0.3 1.0
2017-Aug-10 08:00N 79°36' E 005°12'0 0.0 180 / 61017.1 -0.2-0.3 0.9
2017-Aug-10 07:00N 79°36' E 005°12'0 0.0 180 / 101017.1 -0.5-0.7-0.0
2017-Aug-10 06:00N 79°36' E 005°12'0 0.0 160 / 81017.1 0.1 -0.6-0.6 1.2
2017-Aug-10 05:00N 79°36' E 005°12'0 0.0 200 / 81017.2 -0.7-0.7 1.0
2017-Aug-10 04:00N 79°36' E 005°12'0 0.0 190 / 81017.5 -0.9-1.1 0.7
2017-Aug-10 03:00N 79°36' E 005°12'7 7.4 230 / 81017.7 -1.0-1.1 0.1
2017-Aug-10 02:00N 79°42' E 004°48'3 3.2 220 / 121017.8 -1.2-1.4 0.1
2017-Aug-10 01:00N 79°42' E 004°30'1 1.1 220 / 121018.1 -1.6-1.7-0.5
2017-Aug-10 00:00N 79°42' E 004°24'0 0.0 210 / 121018.4 -1.6-1.6-0.1
2017-Aug-09 23:00N 79°42' E 004°24'6 6.4 210 / 121018.5 -1.8-1.8-0.3
2017-Aug-09 22:00N 79°42' E 005°00'5 5.4 200 / 101018.8 -1.9-2.0-0.1
2017-Aug-09 21:00N 79°42' E 005°30'6 6.0 200 / 121019.3 -1.5-1.6-0.4
2017-Aug-09 20:00N 79°48' E 005°30'1 1.1 210 / 81019.4 -1.9-1.9-0.4
2017-Aug-09 19:00N 79°48' E 005°24'2 2.1 190 / 81019.3 -1.8-1.9-0.5
2017-Aug-09 18:00N 79°48' E 005°12'9 8.8 200 / 61019.4 0.3 -1.3-1.4-0.3
2017-Aug-09 17:00N 79°42' E 004°36'1 1.1 210 / 81019.5 -1.4-1.5-0.2
2017-Aug-09 16:00N 79°42' E 004°30'0 0.0 210 / 61019.6 -1.3-1.3-0.4
2017-Aug-09 15:00N 79°42' E 004°30'1 1.1 210 / 81019.9 1.1 -1.6-1.8-0.5
2017-Aug-09 14:00N 79°42' E 004°24'7 7.4 210 / 81020.0 -1.5-1.7-0.2
2017-Aug-09 13:00N 79°48' E 004°00'7 7.3 210 / 81020.2 -1.7-2.2-0.5
2017-Aug-09 12:00N 79°54' E 003°36'3 3.2 220 / 61020.2 2.2 -1.5-1.9 0.1
2017-Aug-09 11:00N 79°54' E 003°18'0 0.0 210 / 61019.9 -1.7-2.1 0.4
2017-Aug-09 10:00N 79°54' E 003°18'7 6.8 220 / 81019.9 -1.6-1.9-0.2
2017-Aug-09 09:00N 80°00' E 003°00'1 1.0 230 / 61019.7 2.2 -1.5-1.9-0.1
2017-Aug-09 08:00N 80°00' E 002°54'0 0.0 230 / 61019.6 -1.5-1.8 1.6
2017-Aug-09 07:00N 80°00' E 002°54'0 0.0 230 / 61019.4 -1.3-1.5-0.1
2017-Aug-09 06:00N 80°00' E 002°54'0 0.0 230 / 61019.1 0.3 -1.5-1.5-0.4
2017-Aug-09 05:00N 80°00' E 002°54'0 0.0 220 / 61018.8 -1.8-1.8 0.2
2017-Aug-09 04:00N 80°00' E 002°54'0 0.0 210 / 61018.7 -1.3-1.3 0.3
2017-Aug-09 03:00N 80°00' E 002°54'1 1.0 210 / 101018.6 -0.8-1.3 0.8
2017-Aug-09 02:00N 80°00' E 003°00'0 0.0 170 / 81018.6 -0.2-0.2 1.6
2017-Aug-09 01:00N 80°00' E 003°00'0 0.0 140 / 61018.7 -0.5-0.5 1.2
2017-Aug-09 00:00N 80°00' E 003°00'0 0.0 140 / 61018.8 -0.7-0.7 1.0
2017-Aug-08 23:00N 80°00' E 003°00'0 0.0 160 / 41018.8 -1.0-1.0 1.1
2017-Aug-08 22:00N 80°00' E 003°00'1 1.0 200 / 81018.5 -1.0-1.0 0.8
2017-Aug-08 21:00N 80°00' E 002°54'0 0.0 200 / 81018.4 -0.8-0.9 0.2
2017-Aug-08 20:00N 80°00' E 002°54'0 0.0 220 / 61018.1 -1.2-1.2 0.8
2017-Aug-08 19:00N 80°00' E 002°54'0 0.0 220 / 81017.9 -1.3-1.3 0.8
2017-Aug-08 18:00N 80°00' E 002°54'0 0.0 220 / 101017.8 0.5 -1.6-1.6-0.3
2017-Aug-08 17:00N 80°00' E 002°54'   200 / 101017.4 -1.1-1.1 0.4
Track history (hours):
 
Tides and Currents Weather Stations Pressure Air Temp Water Temp Dewpoint Dewpoint Depression Visibility Wind Speed Wind Dir Waves Ship Positions

Oceanographic research ship Polarstern (Germany)

Detailed information on ship capabilities available from University of Delaware's Ocean Information Center and ARCUS's ALIAS (Arctic Logistics Information and Support) project.

Last reported at 2017-Aug-18 17:00 UTC. Time now 2017-Aug-18 18:20 UTC.
Position N 71°12' E 020°36'.

Length 117.9 m; beam 25 m; draft 10.7 m.

MMSI: 211202460.

Wind from 060 at 25 knots

Barometer 1011.3 mb
Air temperature 9.2 ° C
Dewpoint 7.9 ° C
Water temperature 10.2 ° C

Date/timePositionNaut miles runAvg speedWind from/ knotsBaromVisibWave heightAir tempDewpointWater temp
2017-Aug-18 17:00N 71°12' E 020°36'6 6.3 060 / 251011.3 9.2 7.910.2
2017-Aug-18 16:00N 71°18' E 020°30'6 6.3 060 / 231012.0 9.0 7.610.2
2017-Aug-18 15:00N 71°24' E 020°24'6 6.3 060 / 231012.710.8 9.0 7.210.2
2017-Aug-18 14:00N 71°30' E 020°18'6 6.3 070 / 211013.4 8.5 6.610.3
2017-Aug-18 13:00N 71°36' E 020°12'1212.1 080 / 211014.1 8.2 4.810.1
2017-Aug-18 12:00N 71°48' E 020°06'6 6.3 070 / 211014.510.8 7.9 4.7 9.9
2017-Aug-18 11:00N 71°54' E 020°00'7 7.1 070 / 191015.2 7.6 3.910.0
2017-Aug-18 10:00N 72°00' E 019°48'6 6.3 070 / 161016.0 7.4 3.3 9.7
2017-Aug-18 09:00N 72°06' E 019°42'6 6.3 060 / 161016.510.8 7.1 3.3 9.7
2017-Aug-18 08:00N 72°12' E 019°36'1212.1 060 / 161017.0 6.5 1.9 9.6
2017-Aug-18 07:00N 72°24' E 019°30'7 7.0 060 / 141017.5 6.5 1.9 9.7
2017-Aug-18 06:00N 72°30' E 019°18'6 6.3 050 / 121017.410.8 6.3 1.6 9.8
2017-Aug-18 05:00N 72°36' E 019°12'6 6.3 040 / 121017.8 6.1 1.3 9.5
2017-Aug-18 04:00N 72°42' E 019°06'1312.5 040 / 101017.9 5.8 0.7 9.5
2017-Aug-18 03:00N 72°54' E 018°54'6 6.3 030 / 81018.3 5.9 0.9 9.1
2017-Aug-18 02:00N 73°00' E 018°48'1212.5 020 / 101018.4 5.9 1.0 9.0
2017-Aug-18 01:00N 73°12' E 018°36'6 6.2 020 / 101018.2 5.7 0.3 9.1
2017-Aug-18 00:00N 73°18' E 018°30'7 6.9 010 / 101018.2 5.9 1.1 9.2
2017-Aug-17 23:00N 73°24' E 018°18'1212.1 360 / 121017.8 6.2 1.6 9.1
2017-Aug-17 22:00N 73°36' E 018°12'7 6.9 360 / 141017.5 5.6 1.4 8.6
2017-Aug-17 21:00N 73°42' E 018°00'1212.5 360 / 141017.4 5.5 0.5 7.5
2017-Aug-17 20:00N 73°54' E 017°48'6 6.2 360 / 121017.1 5.2 0.5 6.7
2017-Aug-17 19:00N 74°00' E 017°42'7 6.8 360 / 121016.7 5.3 1.7 6.2
2017-Aug-17 18:00N 74°06' E 017°30'1212.4 360 / 161016.210.8 5.2 0.8 7.0
2017-Aug-17 17:00N 74°18' E 017°18'7 6.8 350 / 161015.8 5.1 0.7 5.7
2017-Aug-17 16:00N 74°24' E 017°06'1212.4 350 / 161015.7 5.2 1.1 6.0
2017-Aug-17 15:00N 74°36' E 016°54'1212.4 350 / 171015.210.8 5.1 0.1 6.3
2017-Aug-17 14:00N 74°48' E 016°42'8 7.6 350 / 171014.9 5.1 0.6 8.4
2017-Aug-17 13:00N 74°54' E 016°24'1212.4 360 / 211014.5 4.7 0.2 7.9
2017-Aug-17 12:00N 75°06' E 016°12'1312.9 360 / 211014.310.8 4.6-0.7 7.5
2017-Aug-17 11:00N 75°18' E 015°54'1212.4 350 / 191014.0 4.4-1.0 7.6
2017-Aug-17 10:00N 75°30' E 015°42'7 6.7 350 / 171013.9 4.5-1.6 7.8
2017-Aug-17 09:00N 75°36' E 015°30'1312.8 350 / 191013.510.8 4.7-1.0 7.7
2017-Aug-17 08:00N 75°48' E 015°12'1212.4 350 / 211013.2 3.7-1.4 7.6
2017-Aug-17 07:00N 76°00' E 015°00'1312.8 350 / 191012.9 3.9-1.1 7.7
2017-Aug-17 06:00N 76°12' E 014°42'7 7.4 350 / 191012.827.0 3.6-1.6 7.5
2017-Aug-17 05:00N 76°18' E 014°24'1212.3 330 / 191013.0 4.3-1.3 8.1
2017-Aug-17 04:00N 76°30' E 014°12'1312.7 330 / 161012.7 3.5-1.2 8.1
2017-Aug-17 03:00N 76°42' E 013°54'7 6.6 340 / 211012.7 3.3-0.3 6.2
2017-Aug-17 02:00N 76°48' E 013°42'1312.7 340 / 191012.2 3.3-0.8 5.1
2017-Aug-17 01:00N 77°00' E 013°24'1312.7 330 / 191012.2 3.1-0.0 7.9
2017-Aug-17 00:00N 77°12' E 013°06'1212.3 330 / 191011.8 3.1-1.1 7.5
2017-Aug-16 23:00N 77°24' E 012°54'7 6.5 330 / 191011.6 3.1-1.4 7.8
2017-Aug-16 22:00N 77°30' E 012°42'1212.3 330 / 191010.9 2.7-1.5 6.0
2017-Aug-16 21:00N 77°42' E 012°30'1212.3 330 / 191010.2 1.7-0.9 6.0
2017-Aug-16 20:00N 77°54' E 012°18'9 8.7 320 / 231009.3 1.3 0.5 7.0
2017-Aug-16 19:00N 78°00' E 012°48'9 8.6 320 / 231007.6 2.8-1.2 7.0
2017-Aug-16 18:00N 78°06' E 013°18'1211.5 320 / 231006.710.8 3.1-1.6 7.0
2017-Aug-16 17:00N 78°12' E 014°06'10 9.8 310 / 161005.2 3.5-1.7 7.0
2017-Aug-16 16:00N 78°12' E 014°54'1010.4 270 / 211003.3 3.9-2.0 7.0
2017-Aug-16 15:00N 78°18' E 015°36'6 6.0 250 / 191002.310.8 4.8 0.6 7.0
2017-Aug-16 14:00N 78°12' E 015°36'0 0.0 250 / 211001.0 4.5 0.9 7.0
2017-Aug-16 13:00N 78°12' E 015°36'0 0.0 250 / 251000.1 4.3 0.7 7.0
2017-Aug-16 12:00N 78°12' E 015°36'0 0.0 250 / 25999.0 4.4 1.1 7.0
2017-Aug-16 11:00N 78°12' E 015°36'0 0.0 250 / 23998.1 4.9 2.5 7.0
2017-Aug-16 10:00N 78°12' E 015°36'0 0.0 240 / 27997.1 5.2 2.2 7.0
2017-Aug-16 09:00N 78°12' E 015°36'6 6.0 250 / 21996.2 6.1 3.0 7.0
2017-Aug-16 08:00N 78°18' E 015°36'1 1.2 220 / 17995.6 7.2 1.7 7.0
2017-Aug-16 07:00N 78°18' E 015°30'1 1.2 200 / 10995.1 7.2 1.8 7.0
2017-Aug-16 06:00N 78°18' E 015°24'6 6.1 190 / 14994.7 5.4 6.9 1.9 7.0
2017-Aug-16 05:00N 78°18' E 014°54'2 2.4 230 / 19994.7 6.1 2.8 7.0
2017-Aug-16 04:00N 78°18' E 014°42'0 0.0 240 / 17994.6 5.6 3.9 7.0
2017-Aug-16 03:00N 78°18' E 014°42'0 0.0 180 / 4995.0 5.3 4.9 7.0
2017-Aug-16 02:00N 78°18' E 014°42'0 0.0 020 / 4995.1 5.1 4.6 7.0
2017-Aug-16 01:00N 78°18' E 014°42'0 0.0 360 / 4995.2 4.7 3.9 7.0
2017-Aug-16 00:00N 78°18' E 014°42'0 0.0 350 / 2995.4 4.9 3.5 7.0
2017-Aug-15 23:00N 78°18' E 014°42'0 0.0 020 / 6995.7 5.6 2.7 7.0
2017-Aug-15 22:00N 78°18' E 014°42'0 0.0 340 / 4995.9 5.3 2.6 7.0
2017-Aug-15 21:00N 78°18' E 014°42'1 1.2 270 / 4996.0 5.6 2.0 7.0
2017-Aug-15 20:00N 78°18' E 014°36'0 0.0 230 / 6996.2 5.4 1.9 7.0
2017-Aug-15 19:00N 78°18' E 014°36'1616.3 230 / 10996.5 5.0 1.9 7.0
2017-Aug-15 18:00N 78°06' E 013°42'1413.6 180 / 14996.610.8 4.7 1.6 7.0
2017-Aug-15 17:00N 78°06' E 012°36'1514.8 160 / 12996.5 4.6 1.3 7.0
2017-Aug-15 16:00N 78°12' E 011°30'1312.5 160 / 12996.2 4.5 1.6 7.0
2017-Aug-15 15:00N 78°18' E 010°36'1515.4 150 / 12996.010.8 4.1 2.4 7.0
2017-Aug-15 14:00N 78°30' E 009°48'1111.3 140 / 12996.2 3.6 2.2 7.2
2017-Aug-15 13:00N 78°36' E 009°00'1616.0 130 / 12996.0 3.2 1.8 7.6
2017-Aug-15 12:00N 78°48' E 008°06'1515.1 130 / 8996.110.8 2.8 1.2 8.1
2017-Aug-15 11:00N 79°00' E 007°18'3 3.4 130 / 6996.5 2.3 0.7 7.9
2017-Aug-15 10:00N 79°00' E 007°00'0 0.0 170 / 4996.3 2.0 1.2 7.7
2017-Aug-15 09:00N 79°00' E 007°00'7 6.9 140 / 4996.0 5.4 1.3 0.6 7.9
2017-Aug-15 08:00N 79°00' E 007°36'1010.3 260 / 4995.9 1.3-0.0 8.2
2017-Aug-15 07:00N 79°00' E 008°30'1010.3 310 / 4995.7 1.3 0.7 7.9
2017-Aug-15 06:00N 79°00' E 009°24'1010.3 330 / 6995.7 5.4 1.1 0.5 6.9
2017-Aug-15 05:00N 79°00' E 010°18'6 5.7 320 / 10995.6 1.0 0.4 7.3
2017-Aug-15 04:00N 79°00' E 010°48'3 3.4 320 / 12995.3 1.1 1.1 7.3
2017-Aug-15 03:00N 79°00' E 011°06'0 0.0 320 / 14995.0 2.1 1.8 7.2
2017-Aug-15 02:00N 79°00' E 011°06'0 0.0 330 / 16995.1 3.0 1.9 7.2
2017-Aug-15 01:00N 79°00' E 011°06'0 0.0 330 / 16995.0 3.1 2.2 7.2
2017-Aug-15 00:00N 79°00' E 011°06'0 0.0 330 / 17995.0 3.2 2.8 7.2
2017-Aug-14 23:00N 79°00' E 011°06'6 5.7 320 / 14994.9 3.7 2.7 7.3
2017-Aug-14 22:00N 79°00' E 010°36'7 6.9 330 / 14995.0 3.0 2.2 7.3
2017-Aug-14 21:00N 79°00' E 010°00'6 5.7 340 / 16995.3 2.2 1.6 6.9
2017-Aug-14 20:00N 79°00' E 009°30'0 0.0 350 / 17995.1 2.4 1.6 7.0
2017-Aug-14 19:00N 79°00' E 009°30'0 0.0 330 / 17995.4 2.2 1.3 6.7
2017-Aug-14 18:00N 79°00' E 009°30'0 0.0 330 / 16995.1 5.4 2.0 1.4 6.3
2017-Aug-14 17:00N 79°00' E 009°30'3 3.4 330 / 14995.3 1.7 1.4 6.6
2017-Aug-14 16:00N 79°00' E 009°12'7 6.9 340 / 12995.6 2.0 1.8 7.2
2017-Aug-14 15:00N 79°00' E 008°36'8 8.0 340 / 14995.8 5.4 1.9 1.9 8.4
2017-Aug-14 14:00N 79°00' E 007°54'8 8.0 330 / 16996.3 1.2 0.8 8.5
2017-Aug-14 13:00N 79°00' E 007°12'8 8.0 330 / 17996.6 0.6 0.4 8.2
2017-Aug-14 12:00N 79°00' E 006°30'1 1.1 330 / 16996.9 1.1 -0.0-0.1 8.0
2017-Aug-14 11:00N 79°00' E 006°24'0 0.0 330 / 12996.8 0.2 0.2 7.7
2017-Aug-14 10:00N 79°00' E 006°24'8 8.0 340 / 12997.4 0.5 0.5 8.0
2017-Aug-14 09:00N 79°00' E 007°06'9 9.2 330 / 14997.2 5.4 0.8 0.1 8.2
2017-Aug-14 08:00N 79°00' E 007°54'3 3.4 330 / 14996.8 2.7 1.9 8.5
2017-Aug-14 07:00N 79°00' E 008°12'2 2.3 350 / 10996.7 4.1 3.3 8.6
2017-Aug-14 06:00N 79°00' E 008°24'0 0.0 340 / 12996.9 5.4 3.9 3.5 8.6
2017-Aug-14 05:00N 79°00' E 008°24'0 0.0 350 / 10997.0 4.9 4.4 8.6
2017-Aug-14 04:00N 79°00' E 008°24'0 0.0 360 / 10997.2 5.9 4.6 8.1
2017-Aug-14 03:00N 79°00' E 008°24'0 0.0 350 / 8997.5 5.8 4.7 8.2
2017-Aug-14 02:00N 79°00' E 008°24'0 0.0 360 / 8997.6 6.1 3.9 8.3
2017-Aug-14 01:00N 79°00' E 008°24'0 0.0 010 / 8997.8 5.9 4.6 8.2
2017-Aug-14 00:00N 79°00' E 008°24'6 5.7 360 / 8998.1 6.1 4.9 8.1
2017-Aug-13 23:00N 79°00' E 007°54'7 6.9 010 / 6998.6 6.4 4.5 8.2
2017-Aug-13 22:00N 79°00' E 007°18'3 3.4 010 / 6998.7 6.7 4.5 7.9
2017-Aug-13 21:00N 79°00' E 007°00'0 0.0 010 / 6998.7 6.6 4.4 7.7
2017-Aug-13 20:00N 79°00' E 007°00'0 0.0 360 / 6998.7 6.4 5.2 7.8
2017-Aug-13 19:00N 79°00' E 007°00'0 0.0 350 / 6998.9 6.1 5.3 7.8
2017-Aug-13 18:00N 79°00' E 007°00'0 0.0 350 / 8998.910.8 6.6 3.9 8.1
2017-Aug-13 17:00N 79°00' E 007°00'0 0.0 340 / 8999.1 6.5 5.1 8.0
2017-Aug-13 16:00N 79°00' E 007°00'0 0.0 340 / 8999.0 6.5 4.5 7.9
2017-Aug-13 15:00N 79°00' E 007°00'0 0.0 350 / 8999.2 5.4 6.3 4.4 7.9
2017-Aug-13 14:00N 79°00' E 007°00'0 0.0 340 / 8999.5 6.2 4.4 7.8
2017-Aug-13 13:00N 79°00' E 007°00'0 0.0 330 / 8999.4 6.1 4.8 7.8
2017-Aug-13 12:00N 79°00' E 007°00'0 0.0 320 / 8999.827.0 6.4 5.2 7.9
2017-Aug-13 11:00N 79°00' E 007°00'1 1.1 330 / 6999.8 7.0 4.8 7.5
2017-Aug-13 10:00N 79°00' E 006°54'1 1.1 050 / 21000.0 7.6 5.1 7.5
2017-Aug-13 09:00N 79°00' E 007°00'1 1.1 340 / 6999.8 5.4 7.1 4.7 8.0
2017-Aug-13 08:00N 79°00' E 006°54'8 8.3 040 / 41000.0 7.1 5.1 7.8
2017-Aug-13 07:00N 79°06' E 006°24'3 3.4 010 / 121000.2 4.8 4.1 7.4
2017-Aug-13 06:00N 79°06' E 006°06'1 1.1 020 / 121000.4 5.4 3.2 2.8 6.7
2017-Aug-13 05:00N 79°06' E 006°12'0 0.0 030 / 161000.5 3.2 2.8 6.7
2017-Aug-13 04:00N 79°06' E 006°12'1 1.1 030 / 141000.5 3.1 3.0 6.6
2017-Aug-13 03:00N 79°06' E 006°18'0 0.0 030 / 141000.7 3.1 2.6 6.7
2017-Aug-13 02:00N 79°06' E 006°18'6 6.1 020 / 141001.1 2.8 2.8 6.7
2017-Aug-13 01:00N 79°12' E 006°12'6 6.1 020 / 161001.2 2.0 2.0 6.3
2017-Aug-13 00:00N 79°06' E 006°06'0 0.0 030 / 141001.8 2.4 2.4 7.1
2017-Aug-12 23:00N 79°06' E 006°06'6 6.0 030 / 141002.3 2.1 2.1 6.6
2017-Aug-12 22:00N 79°12' E 006°06'6 6.0 020 / 161002.4 2.1 2.1 6.4
2017-Aug-12 21:00N 79°06' E 006°06'6 6.0 020 / 161002.8 1.8 1.8 7.1
2017-Aug-12 20:00N 79°12' E 006°06'0 0.0 020 / 161003.1 1.6 1.6 6.7
2017-Aug-12 19:00N 79°12' E 006°06'0 0.0 020 / 171003.2 1.2 1.2 7.2
2017-Aug-12 18:00N 79°12' E 006°06'6 6.0 010 / 191003.4 0.1 1.0 1.0 7.2
2017-Aug-12 17:00N 79°06' E 006°06'0 0.0 010 / 191003.8 0.7 0.5 7.4
2017-Aug-12 16:00N 79°06' E 006°06'0 0.0 010 / 171004.1 0.7 0.7 5.8
2017-Aug-12 15:00N 79°06' E 006°06'0 0.0 010 / 161004.7 0.1 0.3 0.3 5.7
2017-Aug-12 14:00N 79°06' E 006°06'0 0.0 010 / 161005.1 0.5 0.5 5.6
2017-Aug-12 13:00N 79°06' E 006°06'0 0.0 010 / 141005.5 -0.0-0.0 5.5
2017-Aug-12 12:00N 79°06' E 006°06'0 0.0 010 / 141006.0 0.3 -0.0-0.0 5.5
2017-Aug-12 11:00N 79°06' E 006°06'7 6.8 010 / 141006.2 -0.1-0.1 5.3
2017-Aug-12 10:00N 79°06' E 005°30'7 6.8 010 / 161006.4 -0.8-0.8 1.8
2017-Aug-12 09:00N 79°06' E 004°54'0 0.0 020 / 161006.8 0.1 -0.7-0.7 1.8
2017-Aug-12 08:00N 79°06' E 004°54'0 0.0 030 / 171007.0 -0.5-0.6 2.7
2017-Aug-12 07:00N 79°06' E 004°54'0 0.0 020 / 171007.3 -0.3-0.3 2.6
2017-Aug-12 06:00N 79°06' E 004°54'0 0.0 030 / 171007.3 0.5 -0.3-0.3 2.4
2017-Aug-12 05:00N 79°06' E 004°54'0 0.0 020 / 191007.6 -0.1-0.3 2.5
2017-Aug-12 04:00N 79°06' E 004°54'0 0.0 020 / 171008.0 -0.2-0.2 2.2
2017-Aug-12 03:00N 79°06' E 004°54'0 0.0 020 / 171008.3 0.2 0.1 3.0
2017-Aug-12 02:00N 79°06' E 004°54'0 0.0 030 / 171008.7 0.3 0.1 2.2
2017-Aug-12 01:00N 79°06' E 004°54'0 0.0 030 / 171009.1 0.4 0.4 2.1
2017-Aug-11 22:00N 79°06' E 004°54'0 0.0 030 / 161010.6 1.4 1.0 1.8
2017-Aug-11 21:00N 79°06' E 004°54'3 3.4 030 / 171010.5 1.5 1.1 1.6
2017-Aug-11 20:00N 79°06' E 004°36'0 0.0 030 / 171010.8 1.4 0.9 0.8
2017-Aug-11 19:00N 79°06' E 004°36'7 6.8 030 / 161011.0 1.5 0.9 1.1
2017-Aug-11 18:00N 79°06' E 004°00'8 7.5 040 / 161011.1 1.1 1.1 1.0 1.6
2017-Aug-11 17:00N 79°00' E 003°36'6 3.1 020 / 101011.6 0.3 0.3 6.6
2017-Aug-11 15:00N 79°06' E 003°42'9 9.1 040 / 141012.2 5.4 1.1 0.4 4.2
2017-Aug-11 14:00N 79°00' E 004°18'2 2.3 040 / 141012.2 1.2 0.4 1.2
2017-Aug-11 13:00N 79°00' E 004°30'1 1.1 020 / 141012.6 1.2 0.6 1.3
2017-Aug-11 12:00N 79°00' E 004°24'0 0.0 040 / 121013.0 5.4 1.2 0.6 5.6
2017-Aug-11 11:00N 79°00' E 004°24'0 0.0 050 / 141013.3 1.3 0.6 5.5
2017-Aug-11 10:00N 79°00' E 004°24'0 0.0 040 / 121013.2 1.1 0.3 5.5
2017-Aug-11 09:00N 79°00' E 004°24'1 1.1 050 / 121013.4 5.4 0.9 0.4 6.7
2017-Aug-11 08:00N 79°00' E 004°18'0 0.0 020 / 121013.3 1.1 0.1 6.8
2017-Aug-11 07:00N 79°00' E 004°18'0 0.0 020 / 121013.3 1.2-0.0 6.0
2017-Aug-11 06:00N 79°00' E 004°18'0 0.0 030 / 101013.6 5.4 1.3 0.3 6.8
2017-Aug-11 05:00N 79°00' E 004°18'0 0.0 050 / 101013.8 1.5-0.3 6.9
2017-Aug-11 04:00N 79°00' E 004°18'6 6.4 030 / 101014.2 1.4-0.1 5.5
2017-Aug-11 03:00N 79°06' E 004°30'1 1.1 050 / 101014.6 1.2 0.1 1.4
2017-Aug-11 02:00N 79°06' E 004°36'0 0.0 060 / 81014.9 1.7-0.1 2.0
2017-Aug-11 01:00N 79°06' E 004°36'0 0.0 090 / 61015.1 2.9 0.5 2.0
2017-Aug-11 00:00N 79°06' E 004°36'6 6.0 070 / 101015.4 2.1-0.0 1.6
2017-Aug-10 23:00N 79°12' E 004°36'6 6.0 090 / 81015.6 1.7 0.2 0.5
2017-Aug-10 22:00N 79°18' E 004°36'2 2.2 120 / 81015.9 1.6-0.0 3.2
2017-Aug-10 21:00N 79°18' E 004°48'1212.2 100 / 101016.0 0.9 0.1 1.6
2017-Aug-10 20:00N 79°30' E 005°00'6 6.4 130 / 81016.1 1.0 0.3 0.6
2017-Aug-10 19:00N 79°36' E 005°12'0 0.0 140 / 81016.2 0.4-0.0 0.1
2017-Aug-10 18:00N 79°36' E 005°12'0 0.0 130 / 61016.3 5.4 0.6-0.4 0.7
2017-Aug-10 17:00N 79°36' E 005°12'0 0.0 130 / 61016.4 1.1 0.3 1.6
2017-Aug-10 16:00N 79°36' E 005°12'0 0.0 150 / 81016.6 0.9-0.3 0.9
2017-Aug-10 15:00N 79°36' E 005°12'1 1.1 140 / 81016.6 5.4 0.7 0.3 1.1
2017-Aug-10 14:00N 79°36' E 005°18'1 1.1 140 / 61016.6 -0.0-0.0 0.4
2017-Aug-10 13:00N 79°36' E 005°12'0 0.0 160 / 81016.7 -0.0-0.1-0.0
2017-Aug-10 12:00N 79°36' E 005°12'0 0.0 180 / 61017.1 0.1 -0.0-0.1 0.4
2017-Aug-10 11:00N 79°36' E 005°12'0 0.0 190 / 61016.9 -0.3-0.3-0.2
2017-Aug-10 10:00N 79°36' E 005°12'1 1.1 190 / 61017.2 -0.5-0.5-0.2
2017-Aug-10 09:00N 79°36' E 005°06'1 1.1 180 / 61017.0 0.1 -0.2-0.3 1.0
2017-Aug-10 08:00N 79°36' E 005°12'0 0.0 180 / 61017.1 -0.2-0.3 0.9
2017-Aug-10 07:00N 79°36' E 005°12'0 0.0 180 / 101017.1 -0.5-0.7-0.0
2017-Aug-10 06:00N 79°36' E 005°12'0 0.0 160 / 81017.1 0.1 -0.6-0.6 1.2
2017-Aug-10 05:00N 79°36' E 005°12'0 0.0 200 / 81017.2 -0.7-0.7 1.0
2017-Aug-10 04:00N 79°36' E 005°12'0 0.0 190 / 81017.5 -0.9-1.1 0.7
2017-Aug-10 03:00N 79°36' E 005°12'7 7.4 230 / 81017.7 -1.0-1.1 0.1
2017-Aug-10 02:00N 79°42' E 004°48'3 3.2 220 / 121017.8 -1.2-1.4 0.1
2017-Aug-10 01:00N 79°42' E 004°30'1 1.1 220 / 121018.1 -1.6-1.7-0.5
2017-Aug-10 00:00N 79°42' E 004°24'0 0.0 210 / 121018.4 -1.6-1.6-0.1
2017-Aug-09 23:00N 79°42' E 004°24'6 6.4 210 / 121018.5 -1.8-1.8-0.3
2017-Aug-09 22:00N 79°42' E 005°00'5 5.4 200 / 101018.8 -1.9-2.0-0.1
2017-Aug-09 21:00N 79°42' E 005°30'6 6.0 200 / 121019.3 -1.5-1.6-0.4
2017-Aug-09 20:00N 79°48' E 005°30'1 1.1 210 / 81019.4 -1.9-1.9-0.4
2017-Aug-09 19:00N 79°48' E 005°24'2 2.1 190 / 81019.3 -1.8-1.9-0.5
2017-Aug-09 18:00N 79°48' E 005°12'9 8.8 200 / 61019.4 0.3 -1.3-1.4-0.3
2017-Aug-09 17:00N 79°42' E 004°36'1 1.1 210 / 81019.5 -1.4-1.5-0.2
2017-Aug-09 16:00N 79°42' E 004°30'0 0.0 210 / 61019.6 -1.3-1.3-0.4
2017-Aug-09 15:00N 79°42' E 004°30'1 1.1 210 / 81019.9 1.1 -1.6-1.8-0.5
2017-Aug-09 14:00N 79°42' E 004°24'7 7.4 210 / 81020.0 -1.5-1.7-0.2
2017-Aug-09 13:00N 79°48' E 004°00'7 7.3 210 / 81020.2 -1.7-2.2-0.5
2017-Aug-09 12:00N 79°54' E 003°36'3 3.2 220 / 61020.2 2.2 -1.5-1.9 0.1
2017-Aug-09 11:00N 79°54' E 003°18'0 0.0 210 / 61019.9 -1.7-2.1 0.4
2017-Aug-09 10:00N 79°54' E 003°18'7 6.8 220 / 81019.9 -1.6-1.9-0.2
2017-Aug-09 09:00N 80°00' E 003°00'1 1.0 230 / 61019.7 2.2 -1.5-1.9-0.1
2017-Aug-09 08:00N 80°00' E 002°54'0 0.0 230 / 61019.6 -1.5-1.8 1.6
2017-Aug-09 07:00N 80°00' E 002°54'0 0.0 230 / 61019.4 -1.3-1.5-0.1
2017-Aug-09 06:00N 80°00' E 002°54'0 0.0 230 / 61019.1 0.3 -1.5-1.5-0.4
2017-Aug-09 05:00N 80°00' E 002°54'0 0.0 220 / 61018.8 -1.8-1.8 0.2
2017-Aug-09 04:00N 80°00' E 002°54'0 0.0 210 / 61018.7 -1.3-1.3 0.3
2017-Aug-09 03:00N 80°00' E 002°54'1 1.0 210 / 101018.6 -0.8-1.3 0.8
2017-Aug-09 02:00N 80°00' E 003°00'0 0.0 170 / 81018.6 -0.2-0.2 1.6
2017-Aug-09 01:00N 80°00' E 003°00'0 0.0 140 / 61018.7 -0.5-0.5 1.2
2017-Aug-09 00:00N 80°00' E 003°00'0 0.0 140 / 61018.8 -0.7-0.7 1.0
2017-Aug-08 23:00N 80°00' E 003°00'0 0.0 160 / 41018.8 -1.0-1.0 1.1
2017-Aug-08 22:00N 80°00' E 003°00'1 1.0 200 / 81018.5 -1.0-1.0 0.8
2017-Aug-08 21:00N 80°00' E 002°54'0 0.0 200 / 81018.4 -0.8-0.9 0.2
2017-Aug-08 20:00N 80°00' E 002°54'0 0.0 220 / 61018.1 -1.2-1.2 0.8
2017-Aug-08 19:00N 80°00' E 002°54'0 0.0 220 / 81017.9 -1.3-1.3 0.8
2017-Aug-08 18:00N 80°00' E 002°54'0 0.0 220 / 101017.8 0.5 -1.6-1.6-0.3
2017-Aug-08 17:00N 80°00' E 002°54'   200 / 101017.4 -1.1-1.1 0.4

Dump ship's entire track history